Kezdőlap
METAR-TAF:

METAR-TAF

Repülőterek :

Asahikawa-airbase, Japán

földrajzi szélesség: 43-48N, földrajzi hosszúság: 142-22E, magasság: 115 m

Jelenlegi meteorológiai megfigyelések

A jelentés 11 órával és 19 perccel ezelõtt készült, 02:40 UTC
Különbözõ irányokból fújó szél 3 kt
Hőmérséklet 15°C
Páratartalom 77%
Légköri nyomás 1001 hPa
Látótávolság 10 km, vagy több
Kevés felhő 700 lábon
Szakadozott felhőzet 4000 lábon
Szakadozott felhőzet 5000 lábon
enyhe esõ

METAR: RJCA 250240Z VRB03KT 9999 -RA FEW007 BKN040 BKN050 15/11 Q1001 RMK 1ST007 5SC040 6SC050 A2958

Idő: 22:59 (13:59 UTC)


TAF: hiányzik

Meteorológiai megfigyelések és előrejelzések több, mint 4000 repülőtéren (METAR és TAF jelentéseket).

A térképen piros és sárga pontok jelzik az elérhető meteorológiai állomásokat.

Mozgassa az egeret a pont fölött, hogy megjelenjen az állomás neve.

Azután kattintson az időjárási megfigyelések és előrejelzések megtekintéséhez.

A térkép megváltoztatása: kattintson a fekete keresztel jelölt zöld gombra ráközelítéshez, a vonallal jelölt zöld gombra távolításhoz, vagy a zöld nyilakra a szomszédos térképek eléréséhez.


METAR-TAF: